sensor_id;sensor_type;location;lat;lon;timestamp;P1;durP1;ratioP1;P2;durP2;ratioP2
35777;SDS011;21899;42.662;23.316;2023-11-22T00:00:36;34.05;;;21.23;;
35777;SDS011;21899;42.662;23.316;2023-11-22T00:03:01;36.05;;;21.23;;
35777;SDS011;21899;42.662;23.316;2023-11-22T00:05:27;36.00;;;20.92;;
35777;SDS011;21899;42.662;23.316;2023-11-22T00:07:52;32.45;;;20.38;;
35777;SDS011;21899;42.662;23.316;2023-11-22T00:10:18;37.58;;;19.88;;
35777;SDS011;21899;42.662;23.316;2023-11-22T00:12:43;42.17;;;23.52;;
35777;SDS011;21899;42.662;23.316;2023-11-22T00:15:09;48.90;;;23.83;;
35777;SDS011;21899;42.662;23.316;2023-11-22T00:17:36;37.63;;;20.65;;
35777;SDS011;21899;42.662;23.316;2023-11-22T00:20:03;33.90;;;19.27;;
35777;SDS011;21899;42.662;23.316;2023-11-22T00:22:33;41.50;;;20.70;;
35777;SDS011;21899;42.662;23.316;2023-11-22T00:24:59;32.30;;;19.25;;
35777;SDS011;21899;42.662;23.316;2023-11-22T00:27:28;37.13;;;20.40;;
35777;SDS011;21899;42.662;23.316;2023-11-22T00:29:57;33.95;;;20.30;;
35777;SDS011;21899;42.662;23.316;2023-11-22T00:32:23;33.60;;;19.00;;
35777;SDS011;21899;42.662;23.316;2023-11-22T00:34:50;33.53;;;18.65;;
35777;SDS011;21899;42.662;23.316;2023-11-22T00:37:16;29.95;;;18.67;;
35777;SDS011;21899;42.662;23.316;2023-11-22T00:39:41;31.35;;;18.50;;
35777;SDS011;21899;42.662;23.316;2023-11-22T00:42:10;33.58;;;17.83;;
35777;SDS011;21899;42.662;23.316;2023-11-22T00:44:35;31.98;;;18.60;;
35777;SDS011;21899;42.662;23.316;2023-11-22T00:47:01;30.92;;;18.05;;
35777;SDS011;21899;42.662;23.316;2023-11-22T00:49:27;36.08;;;19.55;;
35777;SDS011;21899;42.662;23.316;2023-11-22T00:51:52;31.15;;;17.60;;
35777;SDS011;21899;42.662;23.316;2023-11-22T00:54:18;36.20;;;18.55;;
35777;SDS011;21899;42.662;23.316;2023-11-22T00:56:45;39.88;;;21.10;;
35777;SDS011;21899;42.662;23.316;2023-11-22T00:59:11;37.13;;;19.63;;
35777;SDS011;21899;42.662;23.316;2023-11-22T01:01:36;37.20;;;19.58;;
35777;SDS011;21899;42.662;23.316;2023-11-22T01:04:02;35.47;;;19.40;;
35777;SDS011;21899;42.662;23.316;2023-11-22T01:06:27;31.73;;;18.83;;
35777;SDS011;21899;42.662;23.316;2023-11-22T01:08:54;38.95;;;19.67;;
35777;SDS011;21899;42.662;23.316;2023-11-22T01:11:20;31.75;;;18.77;;
35777;SDS011;21899;42.662;23.316;2023-11-22T01:13:45;35.50;;;19.45;;
35777;SDS011;21899;42.662;23.316;2023-11-22T01:16:11;34.63;;;19.75;;
35777;SDS011;21899;42.662;23.316;2023-11-22T01:18:38;36.85;;;19.15;;
35777;SDS011;21899;42.662;23.316;2023-11-22T01:21:04;32.70;;;19.15;;
35777;SDS011;21899;42.662;23.316;2023-11-22T01:23:32;36.78;;;18.75;;
35777;SDS011;21899;42.662;23.316;2023-11-22T01:25:58;32.92;;;18.80;;
35777;SDS011;21899;42.662;23.316;2023-11-22T01:28:24;33.25;;;19.33;;
35777;SDS011;21899;42.662;23.316;2023-11-22T01:30:53;32.60;;;20.02;;
35777;SDS011;21899;42.662;23.316;2023-11-22T01:33:19;31.88;;;17.15;;
35777;SDS011;21899;42.662;23.316;2023-11-22T01:35:45;31.70;;;17.85;;
35777;SDS011;21899;42.662;23.316;2023-11-22T01:38:11;36.45;;;18.77;;
35777;SDS011;21899;42.662;23.316;2023-11-22T01:40:42;30.35;;;17.75;;
35777;SDS011;21899;42.662;23.316;2023-11-22T01:43:12;30.50;;;18.48;;
35777;SDS011;21899;42.662;23.316;2023-11-22T01:45:38;30.40;;;18.10;;
35777;SDS011;21899;42.662;23.316;2023-11-22T01:48:04;33.63;;;19.08;;
35777;SDS011;21899;42.662;23.316;2023-11-22T01:50:30;32.90;;;18.88;;
35777;SDS011;21899;42.662;23.316;2023-11-22T01:52:55;29.45;;;17.90;;
35777;SDS011;21899;42.662;23.316;2023-11-22T01:55:21;33.42;;;17.98;;
35777;SDS011;21899;42.662;23.316;2023-11-22T01:57:46;36.10;;;18.88;;
35777;SDS011;21899;42.662;23.316;2023-11-22T02:00:12;32.40;;;17.95;;
35777;SDS011;21899;42.662;23.316;2023-11-22T02:02:40;33.53;;;17.75;;
35777;SDS011;21899;42.662;23.316;2023-11-22T02:05:06;27.42;;;17.50;;
35777;SDS011;21899;42.662;23.316;2023-11-22T02:07:31;31.25;;;17.58;;
35777;SDS011;21899;42.662;23.316;2023-11-22T02:10:00;36.33;;;17.65;;
35777;SDS011;21899;42.662;23.316;2023-11-22T02:12:27;32.72;;;17.15;;
35777;SDS011;21899;42.662;23.316;2023-11-22T02:14:53;29.75;;;17.27;;
35777;SDS011;21899;42.662;23.316;2023-11-22T02:17:18;32.03;;;17.83;;
35777;SDS011;21899;42.662;23.316;2023-11-22T02:19:44;34.38;;;17.77;;
35777;SDS011;21899;42.662;23.316;2023-11-22T02:22:09;31.30;;;16.90;;
35777;SDS011;21899;42.662;23.316;2023-11-22T02:24:36;27.98;;;17.20;;
35777;SDS011;21899;42.662;23.316;2023-11-22T02:27:01;29.05;;;17.60;;
35777;SDS011;21899;42.662;23.316;2023-11-22T02:29:27;30.80;;;16.88;;
35777;SDS011;21899;42.662;23.316;2023-11-22T02:31:53;28.92;;;16.67;;
35777;SDS011;21899;42.662;23.316;2023-11-22T02:34:18;29.23;;;17.50;;
35777;SDS011;21899;42.662;23.316;2023-11-22T02:36:44;26.10;;;16.30;;
35777;SDS011;21899;42.662;23.316;2023-11-22T02:39:10;30.55;;;16.42;;
35777;SDS011;21899;42.662;23.316;2023-11-22T02:41:35;27.40;;;16.05;;
35777;SDS011;21899;42.662;23.316;2023-11-22T02:44:01;26.65;;;14.65;;
35777;SDS011;21899;42.662;23.316;2023-11-22T02:46:27;37.05;;;15.85;;
35777;SDS011;21899;42.662;23.316;2023-11-22T02:48:52;25.23;;;16.13;;
35777;SDS011;21899;42.662;23.316;2023-11-22T02:51:21;24.73;;;15.10;;
35777;SDS011;21899;42.662;23.316;2023-11-22T02:53:47;27.55;;;15.00;;
35777;SDS011;21899;42.662;23.316;2023-11-22T02:56:13;29.45;;;15.63;;
35777;SDS011;21899;42.662;23.316;2023-11-22T02:58:39;27.73;;;17.50;;
35777;SDS011;21899;42.662;23.316;2023-11-22T03:01:05;29.00;;;16.42;;
35777;SDS011;21899;42.662;23.316;2023-11-22T03:03:32;31.50;;;18.30;;
35777;SDS011;21899;42.662;23.316;2023-11-22T03:05:58;30.42;;;15.80;;
35777;SDS011;21899;42.662;23.316;2023-11-22T03:08:24;31.67;;;16.52;;
35777;SDS011;21899;42.662;23.316;2023-11-22T03:10:49;28.77;;;16.90;;
35777;SDS011;21899;42.662;23.316;2023-11-22T03:13:16;28.92;;;17.23;;
35777;SDS011;21899;42.662;23.316;2023-11-22T03:15:42;27.58;;;16.05;;
35777;SDS011;21899;42.662;23.316;2023-11-22T03:18:08;30.70;;;16.42;;
35777;SDS011;21899;42.662;23.316;2023-11-22T03:20:33;29.40;;;16.40;;
35777;SDS011;21899;42.662;23.316;2023-11-22T03:22:59;28.40;;;16.73;;
35777;SDS011;21899;42.662;23.316;2023-11-22T03:25:25;28.88;;;15.98;;
35777;SDS011;21899;42.662;23.316;2023-11-22T03:27:51;27.00;;;16.10;;
35777;SDS011;21899;42.662;23.316;2023-11-22T03:30:16;29.67;;;17.60;;
35777;SDS011;21899;42.662;23.316;2023-11-22T03:32:42;29.83;;;17.42;;
35777;SDS011;21899;42.662;23.316;2023-11-22T03:35:09;28.48;;;16.77;;
35777;SDS011;21899;42.662;23.316;2023-11-22T03:37:35;28.70;;;15.77;;
35777;SDS011;21899;42.662;23.316;2023-11-22T03:40:02;32.53;;;17.33;;
35777;SDS011;21899;42.662;23.316;2023-11-22T03:42:28;28.73;;;17.02;;
35777;SDS011;21899;42.662;23.316;2023-11-22T03:44:53;27.70;;;16.42;;
35777;SDS011;21899;42.662;23.316;2023-11-22T03:47:19;26.83;;;15.82;;
35777;SDS011;21899;42.662;23.316;2023-11-22T03:49:45;31.52;;;15.95;;
35777;SDS011;21899;42.662;23.316;2023-11-22T03:52:10;31.98;;;17.20;;
35777;SDS011;21899;42.662;23.316;2023-11-22T03:54:36;31.10;;;16.33;;
35777;SDS011;21899;42.662;23.316;2023-11-22T03:57:03;25.63;;;15.23;;
35777;SDS011;21899;42.662;23.316;2023-11-22T03:59:29;28.08;;;16.08;;
35777;SDS011;21899;42.662;23.316;2023-11-22T04:01:54;25.33;;;15.27;;
35777;SDS011;21899;42.662;23.316;2023-11-22T04:04:20;25.95;;;15.88;;
35777;SDS011;21899;42.662;23.316;2023-11-22T04:06:45;32.30;;;15.52;;
35777;SDS011;21899;42.662;23.316;2023-11-22T04:09:11;30.52;;;15.85;;
35777;SDS011;21899;42.662;23.316;2023-11-22T04:11:41;26.20;;;15.45;;
35777;SDS011;21899;42.662;23.316;2023-11-22T04:14:07;26.50;;;14.35;;
35777;SDS011;21899;42.662;23.316;2023-11-22T04:16:32;26.95;;;15.25;;
35777;SDS011;21899;42.662;23.316;2023-11-22T04:18:58;29.08;;;15.07;;
35777;SDS011;21899;42.662;23.316;2023-11-22T04:21:25;28.80;;;14.88;;
35777;SDS011;21899;42.662;23.316;2023-11-22T04:23:51;27.83;;;15.40;;
35777;SDS011;21899;42.662;23.316;2023-11-22T04:26:16;26.38;;;14.32;;
35777;SDS011;21899;42.662;23.316;2023-11-22T04:28:42;25.65;;;14.80;;
35777;SDS011;21899;42.662;23.316;2023-11-22T04:31:07;28.83;;;15.32;;
35777;SDS011;21899;42.662;23.316;2023-11-22T04:33:36;27.65;;;15.90;;
35777;SDS011;21899;42.662;23.316;2023-11-22T04:36:01;31.40;;;16.23;;
35777;SDS011;21899;42.662;23.316;2023-11-22T04:38:27;26.42;;;15.73;;
35777;SDS011;21899;42.662;23.316;2023-11-22T04:40:52;26.00;;;16.13;;
35777;SDS011;21899;42.662;23.316;2023-11-22T04:43:18;27.60;;;17.45;;
35777;SDS011;21899;42.662;23.316;2023-11-22T04:45:43;36.15;;;17.15;;
35777;SDS011;21899;42.662;23.316;2023-11-22T04:48:09;30.70;;;17.02;;
35777;SDS011;21899;42.662;23.316;2023-11-22T04:50:40;29.15;;;16.70;;
35777;SDS011;21899;42.662;23.316;2023-11-22T04:53:05;28.95;;;18.00;;
35777;SDS011;21899;42.662;23.316;2023-11-22T04:55:31;29.65;;;16.60;;
35777;SDS011;21899;42.662;23.316;2023-11-22T04:57:56;24.33;;;14.68;;
35777;SDS011;21899;42.662;23.316;2023-11-22T05:00:22;26.42;;;16.67;;
35777;SDS011;21899;42.662;23.316;2023-11-22T05:02:50;36.95;;;17.15;;
35777;SDS011;21899;42.662;23.316;2023-11-22T05:05:16;27.95;;;16.95;;
35777;SDS011;21899;42.662;23.316;2023-11-22T05:07:41;27.88;;;16.63;;
35777;SDS011;21899;42.662;23.316;2023-11-22T05:10:07;28.60;;;15.98;;
35777;SDS011;21899;42.662;23.316;2023-11-22T05:12:35;31.00;;;16.73;;
35777;SDS011;21899;42.662;23.316;2023-11-22T05:15:02;30.17;;;17.23;;
35777;SDS011;21899;42.662;23.316;2023-11-22T05:17:28;40.47;;;17.65;;
35777;SDS011;21899;42.662;23.316;2023-11-22T05:19:53;33.17;;;17.30;;
35777;SDS011;21899;42.662;23.316;2023-11-22T05:22:19;30.90;;;17.92;;
35777;SDS011;21899;42.662;23.316;2023-11-22T05:24:45;31.48;;;19.08;;
35777;SDS011;21899;42.662;23.316;2023-11-22T05:27:10;32.95;;;18.33;;
35777;SDS011;21899;42.662;23.316;2023-11-22T05:29:36;32.25;;;18.27;;
35777;SDS011;21899;42.662;23.316;2023-11-22T05:32:02;32.13;;;19.60;;
35777;SDS011;21899;42.662;23.316;2023-11-22T05:34:28;27.15;;;16.83;;
35777;SDS011;21899;42.662;23.316;2023-11-22T05:36:57;28.38;;;16.45;;
35777;SDS011;21899;42.662;23.316;2023-11-22T05:39:22;27.58;;;16.13;;
35777;SDS011;21899;42.662;23.316;2023-11-22T05:41:49;27.90;;;17.70;;
35777;SDS011;21899;42.662;23.316;2023-11-22T05:44:14;35.00;;;18.17;;
35777;SDS011;21899;42.662;23.316;2023-11-22T05:46:40;35.47;;;18.27;;
35777;SDS011;21899;42.662;23.316;2023-11-22T05:49:05;27.10;;;17.23;;
35777;SDS011;21899;42.662;23.316;2023-11-22T05:51:31;30.98;;;17.70;;
35777;SDS011;21899;42.662;23.316;2023-11-22T05:53:58;29.60;;;17.58;;
35777;SDS011;21899;42.662;23.316;2023-11-22T05:56:24;30.92;;;17.70;;
35777;SDS011;21899;42.662;23.316;2023-11-22T05:58:49;26.58;;;16.10;;
35777;SDS011;21899;42.662;23.316;2023-11-22T06:01:15;29.63;;;18.08;;
35777;SDS011;21899;42.662;23.316;2023-11-22T06:03:40;33.67;;;17.75;;
35777;SDS011;21899;42.662;23.316;2023-11-22T06:06:06;31.73;;;17.33;;
35777;SDS011;21899;42.662;23.316;2023-11-22T06:08:32;31.08;;;17.45;;
35777;SDS011;21899;42.662;23.316;2023-11-22T06:10:57;28.98;;;16.80;;
35777;SDS011;21899;42.662;23.316;2023-11-22T06:13:24;30.35;;;17.42;;
35777;SDS011;21899;42.662;23.316;2023-11-22T06:15:50;34.17;;;18.38;;
35777;SDS011;21899;42.662;23.316;2023-11-22T06:18:15;29.17;;;17.20;;
35777;SDS011;21899;42.662;23.316;2023-11-22T06:20:41;30.17;;;18.70;;
35777;SDS011;21899;42.662;23.316;2023-11-22T06:23:07;34.83;;;18.00;;
35777;SDS011;21899;42.662;23.316;2023-11-22T06:25:33;37.67;;;19.88;;
35777;SDS011;21899;42.662;23.316;2023-11-22T06:28:00;30.42;;;17.50;;
35777;SDS011;21899;42.662;23.316;2023-11-22T06:30:26;28.15;;;18.60;;
35777;SDS011;21899;42.662;23.316;2023-11-22T06:32:52;31.55;;;18.35;;
35777;SDS011;21899;42.662;23.316;2023-11-22T06:35:17;33.72;;;18.60;;
35777;SDS011;21899;42.662;23.316;2023-11-22T06:37:43;28.20;;;16.92;;
35777;SDS011;21899;42.662;23.316;2023-11-22T06:40:09;24.58;;;16.35;;
35777;SDS011;21899;42.662;23.316;2023-11-22T06:42:37;32.10;;;17.48;;
35777;SDS011;21899;42.662;23.316;2023-11-22T06:45:04;29.33;;;16.73;;
35777;SDS011;21899;42.662;23.316;2023-11-22T06:47:35;28.30;;;17.13;;
35777;SDS011;21899;42.662;23.316;2023-11-22T06:50:04;29.50;;;17.98;;
35777;SDS011;21899;42.662;23.316;2023-11-22T06:52:34;26.38;;;17.25;;
35777;SDS011;21899;42.662;23.316;2023-11-22T06:55:01;30.98;;;17.88;;
35777;SDS011;21899;42.662;23.316;2023-11-22T06:57:27;31.13;;;18.73;;
35777;SDS011;21899;42.662;23.316;2023-11-22T06:59:54;30.60;;;18.15;;
35777;SDS011;21899;42.662;23.316;2023-11-22T07:02:21;35.40;;;17.95;;
35777;SDS011;21899;42.662;23.316;2023-11-22T07:04:46;30.92;;;18.80;;
35777;SDS011;21899;42.662;23.316;2023-11-22T07:07:12;32.67;;;17.88;;
35777;SDS011;21899;42.662;23.316;2023-11-22T07:09:37;33.15;;;17.98;;
35777;SDS011;21899;42.662;23.316;2023-11-22T07:12:07;29.58;;;17.27;;
35777;SDS011;21899;42.662;23.316;2023-11-22T07:14:33;31.75;;;19.35;;
35777;SDS011;21899;42.662;23.316;2023-11-22T07:16:59;32.67;;;19.77;;
35777;SDS011;21899;42.662;23.316;2023-11-22T07:19:26;34.13;;;18.55;;
35777;SDS011;21899;42.662;23.316;2023-11-22T07:21:51;35.92;;;17.58;;
35777;SDS011;21899;42.662;23.316;2023-11-22T07:24:18;31.25;;;16.63;;
35777;SDS011;21899;42.662;23.316;2023-11-22T07:26:43;27.23;;;17.45;;
35777;SDS011;21899;42.662;23.316;2023-11-22T07:29:09;26.55;;;17.38;;
35777;SDS011;21899;42.662;23.316;2023-11-22T07:31:37;30.10;;;19.42;;
35777;SDS011;21899;42.662;23.316;2023-11-22T07:34:03;30.98;;;19.25;;
35777;SDS011;21899;42.662;23.316;2023-11-22T07:36:28;37.72;;;21.00;;
35777;SDS011;21899;42.662;23.316;2023-11-22T07:38:54;26.38;;;16.38;;
35777;SDS011;21899;42.662;23.316;2023-11-22T07:41:19;26.23;;;16.00;;
35777;SDS011;21899;42.662;23.316;2023-11-22T07:43:46;26.73;;;16.02;;
35777;SDS011;21899;42.662;23.316;2023-11-22T07:46:12;27.40;;;15.05;;
35777;SDS011;21899;42.662;23.316;2023-11-22T07:48:41;25.45;;;14.85;;
35777;SDS011;21899;42.662;23.316;2023-11-22T07:51:07;25.50;;;15.32;;
35777;SDS011;21899;42.662;23.316;2023-11-22T07:53:33;29.70;;;16.73;;
35777;SDS011;21899;42.662;23.316;2023-11-22T07:56:03;28.77;;;16.20;;
35777;SDS011;21899;42.662;23.316;2023-11-22T07:58:30;27.35;;;17.25;;
35777;SDS011;21899;42.662;23.316;2023-11-22T08:00:59;26.60;;;16.48;;
35777;SDS011;21899;42.662;23.316;2023-11-22T08:03:25;25.95;;;17.55;;
35777;SDS011;21899;42.662;23.316;2023-11-22T08:05:51;28.10;;;16.40;;
35777;SDS011;21899;42.662;23.316;2023-11-22T08:08:20;27.20;;;16.35;;
35777;SDS011;21899;42.662;23.316;2023-11-22T08:10:46;31.40;;;18.50;;
35777;SDS011;21899;42.662;23.316;2023-11-22T08:13:13;32.92;;;19.02;;
35777;SDS011;21899;42.662;23.316;2023-11-22T08:15:41;26.50;;;16.75;;
35777;SDS011;21899;42.662;23.316;2023-11-22T08:18:06;24.23;;;16.45;;
35777;SDS011;21899;42.662;23.316;2023-11-22T08:20:31;26.05;;;15.68;;
35777;SDS011;21899;42.662;23.316;2023-11-22T08:22:57;25.10;;;16.20;;
35777;SDS011;21899;42.662;23.316;2023-11-22T08:25:22;26.30;;;17.08;;
35777;SDS011;21899;42.662;23.316;2023-11-22T08:27:48;25.33;;;16.65;;
35777;SDS011;21899;42.662;23.316;2023-11-22T08:30:14;25.35;;;15.80;;
35777;SDS011;21899;42.662;23.316;2023-11-22T08:32:44;28.73;;;16.30;;
35777;SDS011;21899;42.662;23.316;2023-11-22T08:35:18;30.17;;;16.20;;
35777;SDS011;21899;42.662;23.316;2023-11-22T08:37:45;26.77;;;15.80;;
35777;SDS011;21899;42.662;23.316;2023-11-22T08:40:12;29.08;;;16.50;;
35777;SDS011;21899;42.662;23.316;2023-11-22T08:42:41;25.88;;;16.30;;
35777;SDS011;21899;42.662;23.316;2023-11-22T08:45:07;28.08;;;17.88;;
35777;SDS011;21899;42.662;23.316;2023-11-22T08:47:34;24.33;;;15.77;;
35777;SDS011;21899;42.662;23.316;2023-11-22T08:49:59;27.88;;;15.32;;
35777;SDS011;21899;42.662;23.316;2023-11-22T08:52:28;24.55;;;15.27;;
35777;SDS011;21899;42.662;23.316;2023-11-22T08:54:55;22.95;;;15.48;;
35777;SDS011;21899;42.662;23.316;2023-11-22T08:57:21;30.77;;;16.63;;
35777;SDS011;21899;42.662;23.316;2023-11-22T08:59:47;26.30;;;16.35;;
35777;SDS011;21899;42.662;23.316;2023-11-22T09:02:13;30.75;;;17.27;;
35777;SDS011;21899;42.662;23.316;2023-11-22T09:04:39;25.10;;;15.15;;
35777;SDS011;21899;42.662;23.316;2023-11-22T09:07:06;26.95;;;16.27;;
35777;SDS011;21899;42.662;23.316;2023-11-22T09:09:32;26.17;;;16.63;;
35777;SDS011;21899;42.662;23.316;2023-11-22T09:12:00;29.17;;;15.63;;
35777;SDS011;21899;42.662;23.316;2023-11-22T09:14:26;22.80;;;14.63;;
35777;SDS011;21899;42.662;23.316;2023-11-22T09:16:52;29.45;;;17.02;;
35777;SDS011;21899;42.662;23.316;2023-11-22T09:19:23;24.15;;;15.90;;
35777;SDS011;21899;42.662;23.316;2023-11-22T09:21:49;27.88;;;17.33;;
35777;SDS011;21899;42.662;23.316;2023-11-22T09:24:16;31.50;;;18.67;;
35777;SDS011;21899;42.662;23.316;2023-11-22T09:26:42;29.52;;;19.42;;
35777;SDS011;21899;42.662;23.316;2023-11-22T09:29:08;30.20;;;19.23;;
35777;SDS011;21899;42.662;23.316;2023-11-22T09:31:35;33.63;;;21.10;;
35777;SDS011;21899;42.662;23.316;2023-11-22T09:34:01;34.90;;;21.48;;
35777;SDS011;21899;42.662;23.316;2023-11-22T09:36:28;35.55;;;23.95;;
35777;SDS011;21899;42.662;23.316;2023-11-22T09:38:57;38.03;;;23.77;;
35777;SDS011;21899;42.662;23.316;2023-11-22T09:41:23;39.33;;;22.83;;
35777;SDS011;21899;42.662;23.316;2023-11-22T09:43:52;34.00;;;21.67;;
35777;SDS011;21899;42.662;23.316;2023-11-22T09:46:18;34.60;;;21.40;;
35777;SDS011;21899;42.662;23.316;2023-11-22T09:48:46;36.17;;;23.05;;
35777;SDS011;21899;42.662;23.316;2023-11-22T09:51:26;32.70;;;20.80;;
35777;SDS011;21899;42.662;23.316;2023-11-22T09:53:55;40.78;;;22.95;;
35777;SDS011;21899;42.662;23.316;2023-11-22T09:56:25;34.08;;;23.20;;
35777;SDS011;21899;42.662;23.316;2023-11-22T09:58:51;35.88;;;24.00;;
35777;SDS011;21899;42.662;23.316;2023-11-22T10:01:22;37.13;;;24.08;;
35777;SDS011;21899;42.662;23.316;2023-11-22T10:03:48;45.58;;;26.75;;
35777;SDS011;21899;42.662;23.316;2023-11-22T10:06:14;39.33;;;26.20;;
35777;SDS011;21899;42.662;23.316;2023-11-22T10:08:40;48.13;;;28.02;;
35777;SDS011;21899;42.662;23.316;2023-11-22T10:11:06;40.63;;;26.65;;
35777;SDS011;21899;42.662;23.316;2023-11-22T10:13:32;43.63;;;28.02;;
35777;SDS011;21899;42.662;23.316;2023-11-22T10:16:09;47.83;;;29.70;;
35777;SDS011;21899;42.662;23.316;2023-11-22T10:18:47;40.60;;;26.10;;
35777;SDS011;21899;42.662;23.316;2023-11-22T10:21:23;38.25;;;25.15;;
35777;SDS011;21899;42.662;23.316;2023-11-22T10:23:54;39.15;;;25.88;;
35777;SDS011;21899;42.662;23.316;2023-11-22T10:26:21;40.22;;;24.75;;
35777;SDS011;21899;42.662;23.316;2023-11-22T10:28:50;45.53;;;25.52;;
35777;SDS011;21899;42.662;23.316;2023-11-22T10:31:17;38.33;;;24.92;;
35777;SDS011;21899;42.662;23.316;2023-11-22T10:33:44;37.13;;;24.00;;
35777;SDS011;21899;42.662;23.316;2023-11-22T10:36:10;39.20;;;23.95;;
35777;SDS011;21899;42.662;23.316;2023-11-22T10:38:37;37.47;;;24.25;;
35777;SDS011;21899;42.662;23.316;2023-11-22T10:41:04;46.67;;;25.88;;
35777;SDS011;21899;42.662;23.316;2023-11-22T10:43:30;42.15;;;28.30;;
35777;SDS011;21899;42.662;23.316;2023-11-22T10:46:00;42.60;;;27.90;;
35777;SDS011;21899;42.662;23.316;2023-11-22T10:48:27;41.50;;;27.65;;
35777;SDS011;21899;42.662;23.316;2023-11-22T10:50:54;42.45;;;27.77;;
35777;SDS011;21899;42.662;23.316;2023-11-22T10:53:22;40.05;;;23.42;;
35777;SDS011;21899;42.662;23.316;2023-11-22T10:55:59;36.38;;;22.80;;
35777;SDS011;21899;42.662;23.316;2023-11-22T10:58:30;37.42;;;22.70;;
35777;SDS011;21899;42.662;23.316;2023-11-22T11:00:57;32.83;;;22.92;;
35777;SDS011;21899;42.662;23.316;2023-11-22T11:03:24;35.55;;;22.70;;
35777;SDS011;21899;42.662;23.316;2023-11-22T11:05:59;31.40;;;19.33;;
35777;SDS011;21899;42.662;23.316;2023-11-22T11:08:29;35.60;;;21.02;;
35777;SDS011;21899;42.662;23.316;2023-11-22T11:10:55;30.20;;;21.55;;
35777;SDS011;21899;42.662;23.316;2023-11-22T11:13:23;34.08;;;21.55;;
35777;SDS011;21899;42.662;23.316;2023-11-22T11:15:49;32.28;;;21.92;;
35777;SDS011;21899;42.662;23.316;2023-11-22T11:18:17;33.83;;;22.30;;
35777;SDS011;21899;42.662;23.316;2023-11-22T11:20:49;35.55;;;23.02;;
35777;SDS011;21899;42.662;23.316;2023-11-22T11:23:20;40.83;;;24.52;;
35777;SDS011;21899;42.662;23.316;2023-11-22T11:25:48;35.00;;;22.15;;
35777;SDS011;21899;42.662;23.316;2023-11-22T11:28:18;42.55;;;27.67;;
35777;SDS011;21899;42.662;23.316;2023-11-22T11:33:14;29.13;;;20.83;;
35777;SDS011;21899;42.662;23.316;2023-11-22T11:38:16;34.15;;;22.98;;
35777;SDS011;21899;42.662;23.316;2023-11-22T11:40:45;35.37;;;22.60;;
35777;SDS011;21899;42.662;23.316;2023-11-22T11:43:12;31.90;;;21.33;;
35777;SDS011;21899;42.662;23.316;2023-11-22T11:45:44;31.27;;;22.70;;
35777;SDS011;21899;42.662;23.316;2023-11-22T11:48:16;32.67;;;21.50;;
35777;SDS011;21899;42.662;23.316;2023-11-22T11:50:42;36.88;;;24.13;;
35777;SDS011;21899;42.662;23.316;2023-11-22T11:53:11;40.15;;;24.83;;
35777;SDS011;21899;42.662;23.316;2023-11-22T11:55:37;35.72;;;24.20;;
35777;SDS011;21899;42.662;23.316;2023-11-22T11:58:06;35.28;;;25.20;;
35777;SDS011;21899;42.662;23.316;2023-11-22T12:00:34;35.55;;;24.52;;
35777;SDS011;21899;42.662;23.316;2023-11-22T12:03:05;42.30;;;24.95;;
35777;SDS011;21899;42.662;23.316;2023-11-22T12:05:31;36.30;;;23.92;;
35777;SDS011;21899;42.662;23.316;2023-11-22T12:07:57;37.38;;;24.20;;
35777;SDS011;21899;42.662;23.316;2023-11-22T12:10:22;35.97;;;24.40;;
35777;SDS011;21899;42.662;23.316;2023-11-22T12:12:49;34.13;;;22.60;;
35777;SDS011;21899;42.662;23.316;2023-11-22T12:15:14;39.95;;;23.63;;
35777;SDS011;21899;42.662;23.316;2023-11-22T12:17:40;32.97;;;22.48;;
35777;SDS011;21899;42.662;23.316;2023-11-22T12:20:15;39.80;;;22.70;;
35777;SDS011;21899;42.662;23.316;2023-11-22T12:22:43;36.45;;;23.05;;
35777;SDS011;21899;42.662;23.316;2023-11-22T12:25:10;33.47;;;21.17;;
35777;SDS011;21899;42.662;23.316;2023-11-22T12:27:40;33.92;;;20.30;;
35777;SDS011;21899;42.662;23.316;2023-11-22T12:30:06;31.58;;;21.77;;
35777;SDS011;21899;42.662;23.316;2023-11-22T12:32:33;33.08;;;21.98;;
35777;SDS011;21899;42.662;23.316;2023-11-22T12:34:59;34.38;;;21.02;;
35777;SDS011;21899;42.662;23.316;2023-11-22T12:37:24;29.20;;;20.73;;
35777;SDS011;21899;42.662;23.316;2023-11-22T12:39:52;29.05;;;21.23;;
35777;SDS011;21899;42.662;23.316;2023-11-22T12:42:19;31.95;;;22.02;;
35777;SDS011;21899;42.662;23.316;2023-11-22T12:47:14;40.28;;;27.60;;
35777;SDS011;21899;42.662;23.316;2023-11-22T12:49:47;41.45;;;25.73;;
35777;SDS011;21899;42.662;23.316;2023-11-22T12:52:12;39.55;;;26.02;;
35777;SDS011;21899;42.662;23.316;2023-11-22T12:54:39;39.78;;;26.52;;
35777;SDS011;21899;42.662;23.316;2023-11-22T12:57:09;41.10;;;29.60;;
35777;SDS011;21899;42.662;23.316;2023-11-22T12:59:37;54.88;;;33.40;;
35777;SDS011;21899;42.662;23.316;2023-11-22T13:02:04;48.80;;;34.28;;
35777;SDS011;21899;42.662;23.316;2023-11-22T13:04:32;50.17;;;32.70;;
35777;SDS011;21899;42.662;23.316;2023-11-22T13:06:58;42.75;;;30.00;;
35777;SDS011;21899;42.662;23.316;2023-11-22T13:09:25;45.95;;;31.88;;
35777;SDS011;21899;42.662;23.316;2023-11-22T13:11:51;46.65;;;32.75;;
35777;SDS011;21899;42.662;23.316;2023-11-22T13:14:17;44.53;;;31.50;;
35777;SDS011;21899;42.662;23.316;2023-11-22T13:16:43;43.85;;;29.58;;
35777;SDS011;21899;42.662;23.316;2023-11-22T13:19:10;46.20;;;28.08;;
35777;SDS011;21899;42.662;23.316;2023-11-22T13:21:35;43.92;;;27.80;;
35777;SDS011;21899;42.662;23.316;2023-11-22T13:24:01;41.13;;;28.35;;
35777;SDS011;21899;42.662;23.316;2023-11-22T13:26:28;40.55;;;26.95;;
35777;SDS011;21899;42.662;23.316;2023-11-22T13:28:53;40.50;;;26.83;;
35777;SDS011;21899;42.662;23.316;2023-11-22T13:31:20;41.35;;;26.58;;
35777;SDS011;21899;42.662;23.316;2023-11-22T13:33:46;41.58;;;24.98;;
35777;SDS011;21899;42.662;23.316;2023-11-22T13:36:12;39.10;;;24.20;;
35777;SDS011;21899;42.662;23.316;2023-11-22T13:38:39;39.45;;;26.42;;
35777;SDS011;21899;42.662;23.316;2023-11-22T13:41:05;40.10;;;26.13;;
35777;SDS011;21899;42.662;23.316;2023-11-22T13:43:30;40.60;;;26.08;;
35777;SDS011;21899;42.662;23.316;2023-11-22T13:45:58;38.17;;;24.35;;
35777;SDS011;21899;42.662;23.316;2023-11-22T13:48:23;38.78;;;25.65;;
35777;SDS011;21899;42.662;23.316;2023-11-22T13:50:49;38.25;;;23.38;;
35777;SDS011;21899;42.662;23.316;2023-11-22T13:53:15;38.67;;;23.95;;
35777;SDS011;21899;42.662;23.316;2023-11-22T13:55:42;42.15;;;24.92;;
35777;SDS011;21899;42.662;23.316;2023-11-22T13:58:08;39.10;;;26.08;;
35777;SDS011;21899;42.662;23.316;2023-11-22T14:00:34;37.20;;;23.80;;
35777;SDS011;21899;42.662;23.316;2023-11-22T14:03:00;41.28;;;23.38;;
35777;SDS011;21899;42.662;23.316;2023-11-22T14:05:33;34.38;;;22.75;;
35777;SDS011;21899;42.662;23.316;2023-11-22T14:08:02;33.45;;;19.52;;
35777;SDS011;21899;42.662;23.316;2023-11-22T14:10:28;32.10;;;19.42;;
35777;SDS011;21899;42.662;23.316;2023-11-22T14:12:53;31.55;;;19.25;;